Nearby METAR Reports


Data Updates Approximately Every Four Hours

METAR is the international standard code format for hourly surface weather observations which is analogous to the SA coding currently used in the US. The acronym roughly translates from French as Aviation Routine Weather Report. SPECI is merely the code name given to METAR formatted products which are issued on a special non-routine basis as dictated by changing meteorological conditions. The SPECI acronym roughly translates as Aviation Selected Special Weather Report.

KSLH - Cheboygan, Michigan, USA
Distance from station: W 9mi, 14km
Updated: 09/24/2017 12:54am
Clear
Clear
 Wind from calm
Wind: Calm
Temperature: 63°F , 17°C
Dew Point: 61°F , 16°C
Humidity: 94%
Barometer: 30.07 inHg , 1018.3 hPa
Clouds: Clear
Visibility: 10 miles , 16 km
2017/09/24 04:54 KSLH 240454Z AUTO 00000KT 10SM CLR 17/16 A3007 RMK AO2 T01750166
KMCD - Mackinac Island, Michigan, USA
Distance from station: NW 19mi, 31km
Updated: 09/24/2017 12:55am
Clear
Clear
 Wind from W
Wind: W 3 mph , 6 km/h
Temperature: 72°F , 22°C
Dew Point: 64°F , 18°C
Humidity: 78%
Barometer: 30.08 inHg , 1018.6 hPa
Clouds: Clear
Visibility: 10 miles , 16 km
2017/09/24 04:55 KMCD 240455Z AUTO 28003KT 10SM CLR 22/18 A3008 RMK AO2 T02160179
 
KPLN - Pellston, Michigan, USA
Distance from station: WSW 24mi, 38km
Updated: 09/24/2017 12:54am
Mist, Clear
Mist, Clear
 Wind from calm
Wind: Calm
Temperature: 63°F , 17°C
Dew Point: 63°F , 17°C
Humidity: 100%
Barometer: 30.08 inHg , 1018.6 hPa
Summary: Mist
Clouds: Clear
Visibility: 5 miles , 8 km
2017/09/24 04:54 KPLN 240454Z AUTO 00000KT 5SM BR CLR 17/17 A3008 RMK AO2 SLP184 T01720167 403280150
KPZQ - Rogers City, Michigan, USA
Distance from station: SE 31mi, 50km
Updated: 09/24/2017 12:55am
Clear
Clear
 Wind from calm
Wind: Calm
Temperature: 73°F , 23°C
Dew Point: 66°F , 19°C
Humidity: 78%
Barometer: 30.10 inHg , 1019.3 hPa
Clouds: Clear
Visibility: 10 miles , 16 km
2017/09/24 04:55 KPZQ 240455Z AUTO 00000KT 10SM CLR 23/19 A3010 RMK AO2 T02250192
 
KMGN - Harbor Springs, Michigan, USA
Distance from station: WSW 32mi, 52km
Updated: 09/24/2017 12:56am
Clear
Clear
 Wind from calm
Wind: Calm
Temperature: 66°F , 19°C
Dew Point: 64°F , 18°C
Humidity: 94%
Barometer: 30.08 inHg , 1018.6 hPa
Clouds: Clear
Visibility: 10 miles , 16 km
2017/09/24 04:56 KMGN 240456Z AUTO 00000KT 10SM CLR 19/18 A3008 RMK AO2 T01950186
KDRM - Drummond Is, Michigan, USA
Distance from station: NE 36mi, 59km
Updated: 09/24/2017 12:53am
Mist
Mist
 Wind from calm
Wind: Calm
Temperature: 64°F , 18°C
Dew Point: 64°F , 18°C
Humidity: 100%
Barometer: 30.08 inHg , 1018.6 hPa
Summary: Mist
Visibility: 3 miles , 5 km
2017/09/24 04:53 KDRM 240453Z AUTO 00000KT 3SM BR 18/18 A3008 RMK AO2 SKY OBSCURED T01830176
 
KCIU - Chippewa Intl, Michigan, USA
Distance from station: N 41mi, 66km
Updated: 09/24/2017 12:56am
Clear
Clear
 Wind from varies
Wind: varies 5 mph , 7 km/h
Temperature: 68°F , 20°C
Dew Point: 64°F , 18°C
Humidity: 88%
Barometer: 30.08 inHg , 1018.6 hPa
Clouds: Clear
Visibility: 10 miles , 16 km
2017/09/24 04:56 KCIU 240456Z AUTO VRB04KT 10SM CLR 20/18 A3008 RMK AO2 SLP198 T02000183 403060172 PNO $
KGLR - Gaylord, Michigan, USA
Distance from station: SSW 48mi, 77km
Updated: 09/24/2017 12:53am
Clear
Clear
 Wind from calm
Wind: Calm
Temperature: 64°F , 18°C
Dew Point: 63°F , 17°C
Humidity: 94%
Barometer: 30.13 inHg , 1020.3 hPa
Clouds: Clear
Visibility: 7 miles , 11 km
2017/09/24 04:53 KGLR 240453Z AUTO 00000KT 7SM CLR 18/17 A3013 RMK AO2 SLP196 T01830172 403170178
 
KCVX - Charlevoix, Michigan, USA
Distance from station: WSW 52mi, 83km
Updated: 09/24/2017 12:54am
Clear
Clear
 Wind from ESE
Wind: ESE 3 mph , 6 km/h
Temperature: 70°F , 21°C
Dew Point: 66°F , 19°C
Humidity: 88%
Barometer: 30.10 inHg , 1019.3 hPa
Clouds: Clear
Visibility: 10 miles , 16 km
2017/09/24 04:54 KCVX 240454Z AUTO 11003KT 10SM CLR 21/19 A3010 RMK AO2 T02070185
KANJ - Sault Ste Marie, Michigan, USA
Distance from station: N 56mi, 89km
Updated: 09/24/2017 12:55am
Clear
Clear
 Wind from calm
Wind: Calm
Temperature: 68°F , 20°C
Dew Point: 64°F , 18°C
Humidity: 88%
Barometer: 30.06 inHg , 1017.9 hPa
Clouds: Clear
Visibility: 8 miles , 13 km
2017/09/24 04:55 KANJ 240455Z AUTO 00000KT 8SM CLR 20/18 A3006 RMK AO2 SLP174 T02000178 403220183
 
KAPN - Alpena, Michigan, USA
Distance from station: SE 56mi, 89km
Updated: 09/24/2017 12:54am
Clear
Clear
 Wind from SSE
Wind: SSE 3 mph , 6 km/h
Temperature: 66°F , 19°C
Dew Point: 66°F , 19°C
Humidity: 100%
Barometer: 30.10 inHg , 1019.3 hPa
Clouds: Clear
Visibility: 8 miles , 13 km
2017/09/24 04:54 KAPN 240454Z AUTO 15003KT 8SM CLR 19/19 A3010 RMK AO2 SLP190 T01940194 403390167
CYAM - Sault Ste Marie, Ontario, Canada
Distance from station: N 56mi, 90km
Updated: 09/24/2017 12:00am
Clear
Clear
 Wind from S
Wind: S 5 mph , 7 km/h
Temperature: 66°F , 19°C
Dew Point: 64°F , 18°C
Humidity: 94%
Barometer: 30.06 inHg , 1017.9 hPa
Clouds: Clear
Visibility: 15 miles , 24 km
2017/09/24 04:00 CYAM 240400Z 19004KT 140V210 15SM SKC 19/18 A3006 RMK SLP180 DENSITY ALT 1100FT
 
KSJX - Beaver Island, Michigan, USA
Distance from station: W 60mi, 96km
Updated: 09/23/2017 11:18pm
NOT Current
Clear
Clear
 Wind from SW
Wind: SW 8 mph , 13 km/h
Temperature: 73°F , 23°C
Dew Point: 64°F , 18°C
Humidity: 74%
Barometer: 30.07 inHg , 1018.3 hPa
Clouds: Clear
Visibility: 10 miles , 16 km
2017/09/24 03:18 KSJX 240318Z AUTO 22007KT 10SM CLR 23/18 A3007 RMK AO2 T02310182
KACB - Bellaire, Michigan, USA
Distance from station: SW 63mi, 102km
Updated: 09/24/2017 12:53am
Mist, Clear
Mist, Clear
 Wind from calm
Wind: Calm
Temperature: 66°F , 19°C
Dew Point: 64°F , 18°C
Humidity: 94%
Barometer: 30.09 inHg , 1019 hPa
Summary: Mist
Clouds: Clear
Visibility: 2 1/2 miles , 2 km
2017/09/24 04:53 KACB 240453Z AUTO 00000KT 2 1/2SM BR CLR 19/18 A3009 RMK AO2 VIS 3/4V5 T01860178
 
CWNL - Great Duck Island, Ontario, Canada
Distance from station: E 66mi, 106km
Updated: 09/24/2017 12:00am

 Wind from SSE
Wind: SSE 1 mph , 2 km/h
Temperature: 68°F , 20°C
Dew Point: 64°F , 18°C
Humidity: 88%
2017/09/24 04:00 CWNL 240400Z AUTO 15001KT 20/18 RMK AO1 SLP183 T01950183 51005
KERY - Newberry, Michigan, USA
Distance from station: NW 69mi, 112km
Updated: 09/24/2017 12:54am
Clear
Clear
 Wind from SSW
Wind: SSW 7 mph , 11 km/h
Temperature: 68°F , 20°C
Dew Point: 68°F , 20°C
Humidity: 100%
Barometer: 30.06 inHg , 1017.9 hPa
Clouds: Clear
Visibility: 10 miles , 16 km
2017/09/24 04:54 KERY 240454Z AUTO 20006KT 10SM CLR 20/20 A3006 RMK AO2 T02030198
 
KGOV - Grayling Af, Michigan, USA
Distance from station: SSW 70mi, 113km
Updated: 09/24/2017 12:56am
Clear
Clear
 Wind from calm
Wind: Calm
Temperature: 63°F , 17°C
Dew Point: 61°F , 16°C
Humidity: 94%
Barometer: 30.13 inHg , 1020.3 hPa
Clouds: Clear
Visibility: 7 miles , 11 km
2017/09/24 04:56 KGOV 240456Z AUTO 00000KT 7SM CLR 17/16 A3013 RMK AO2 T01740159